sensor_id;sensor_type;location;lat;lon;timestamp;pressure;altitude;pressure_sealevel;temperature;humidity
68525;BME280;55524;51.380;13.372;2023-10-09T00:02:09;101151.00;;;10.48;100.00
68525;BME280;55524;51.380;13.372;2023-10-09T00:04:38;101167.72;;;10.50;100.00
68525;BME280;55524;51.380;13.372;2023-10-09T00:07:07;101159.00;;;10.47;100.00
68525;BME280;55524;51.380;13.372;2023-10-09T00:09:35;101148.47;;;10.45;100.00
68525;BME280;55524;51.380;13.372;2023-10-09T00:12:16;101127.34;;;10.44;100.00
68525;BME280;55524;51.380;13.372;2023-10-09T00:14:43;101125.63;;;10.43;100.00
68525;BME280;55524;51.380;13.372;2023-10-09T00:17:17;101115.91;;;10.43;100.00
68525;BME280;55524;51.380;13.372;2023-10-09T00:19:45;101110.72;;;10.40;100.00
68525;BME280;55524;51.380;13.372;2023-10-09T00:22:14;101102.78;;;10.40;100.00
68525;BME280;55524;51.380;13.372;2023-10-09T00:25:04;101112.44;;;10.41;100.00
68525;BME280;55524;51.380;13.372;2023-10-09T00:27:47;101074.56;;;10.42;100.00
68525;BME280;55524;51.380;13.372;2023-10-09T00:30:16;101063.16;;;10.40;100.00
68525;BME280;55524;51.380;13.372;2023-10-09T00:32:44;101051.66;;;10.41;100.00
68525;BME280;55524;51.380;13.372;2023-10-09T00:35:31;101054.31;;;10.41;100.00
68525;BME280;55524;51.380;13.372;2023-10-09T00:38:06;101071.00;;;10.43;100.00
68525;BME280;55524;51.380;13.372;2023-10-09T00:40:55;101098.25;;;10.45;100.00
68525;BME280;55524;51.380;13.372;2023-10-09T00:43:37;101109.59;;;10.49;100.00
68525;BME280;55524;51.380;13.372;2023-10-09T00:46:05;101115.78;;;10.49;100.00
68525;BME280;55524;51.380;13.372;2023-10-09T00:48:55;101121.22;;;10.43;100.00
68525;BME280;55524;51.380;13.372;2023-10-09T00:51:23;101117.66;;;10.44;100.00
68525;BME280;55524;51.380;13.372;2023-10-09T00:53:53;101119.28;;;10.50;100.00
68525;BME280;55524;51.380;13.372;2023-10-09T00:56:21;101109.59;;;10.49;100.00
68525;BME280;55524;51.380;13.372;2023-10-09T00:58:59;101114.00;;;10.50;100.00
68525;BME280;55524;51.380;13.372;2023-10-09T01:01:33;101099.94;;;10.48;100.00
68525;BME280;55524;51.380;13.372;2023-10-09T01:04:07;101095.63;;;10.45;100.00
68525;BME280;55524;51.380;13.372;2023-10-09T01:06:43;101080.72;;;10.41;100.00
68525;BME280;55524;51.380;13.372;2023-10-09T01:09:16;101080.72;;;10.41;100.00
68525;BME280;55524;51.380;13.372;2023-10-09T01:11:43;101074.59;;;10.41;100.00
68525;BME280;55524;51.380;13.372;2023-10-09T01:14:25;101070.25;;;10.38;100.00
68525;BME280;55524;51.380;13.372;2023-10-09T01:16:51;101058.72;;;10.42;100.00
68525;BME280;55524;51.380;13.372;2023-10-09T01:19:21;101051.78;;;10.38;100.00
68525;BME280;55524;51.380;13.372;2023-10-09T01:21:51;101052.63;;;10.39;100.00
68525;BME280;55524;51.380;13.372;2023-10-09T01:24:18;101069.34;;;10.39;100.00
68525;BME280;55524;51.380;13.372;2023-10-09T01:26:46;101057.94;;;10.37;100.00
68525;BME280;55524;51.380;13.372;2023-10-09T01:31:45;101029.06;;;10.31;100.00
68525;BME280;55524;51.380;13.372;2023-10-09T01:34:22;101025.56;;;10.30;100.00
68525;BME280;55524;51.380;13.372;2023-10-09T01:36:52;101023.91;;;10.26;100.00
68525;BME280;55524;51.380;13.372;2023-10-09T01:39:22;101014.31;;;10.21;100.00
68525;BME280;55524;51.380;13.372;2023-10-09T01:42:05;101012.66;;;10.18;100.00
68525;BME280;55524;51.380;13.372;2023-10-09T01:44:33;101001.84;;;10.27;100.00
68525;BME280;55524;51.380;13.372;2023-10-09T01:47:09;100989.66;;;10.22;100.00
68525;BME280;55524;51.380;13.372;2023-10-09T01:49:40;100981.69;;;10.23;100.00
68525;BME280;55524;51.380;13.372;2023-10-09T01:52:12;100974.59;;;10.25;100.00
68525;BME280;55524;51.380;13.372;2023-10-09T01:54:43;100971.13;;;10.23;100.00
68525;BME280;55524;51.380;13.372;2023-10-09T01:57:17;100976.31;;;10.28;100.00
68525;BME280;55524;51.380;13.372;2023-10-09T01:59:49;100967.56;;;10.24;100.00
68525;BME280;55524;51.380;13.372;2023-10-09T02:02:16;100964.25;;;10.18;100.00
68525;BME280;55524;51.380;13.372;2023-10-09T02:05:03;100956.19;;;10.21;100.00
68525;BME280;55524;51.380;13.372;2023-10-09T02:07:41;100941.16;;;10.26;100.00
68525;BME280;55524;51.380;13.372;2023-10-09T02:10:12;100929.72;;;10.24;100.00
68525;BME280;55524;51.380;13.372;2023-10-09T02:12:58;100926.09;;;10.28;100.00
68525;BME280;55524;51.380;13.372;2023-10-09T02:15:29;100917.16;;;10.33;100.00
68525;BME280;55524;51.380;13.372;2023-10-09T02:18:15;100912.97;;;10.25;100.00
68525;BME280;55524;51.380;13.372;2023-10-09T02:23:30;100912.88;;;10.29;100.00
68525;BME280;55524;51.380;13.372;2023-10-09T02:26:09;100905.94;;;10.24;100.00
68525;BME280;55524;51.380;13.372;2023-10-09T02:28:43;100904.94;;;10.29;100.00
68525;BME280;55524;51.380;13.372;2023-10-09T02:31:11;100887.44;;;10.25;100.00
68525;BME280;55524;51.380;13.372;2023-10-09T02:33:38;100873.28;;;10.28;100.00
68525;BME280;55524;51.380;13.372;2023-10-09T02:36:08;100869.69;;;10.30;100.00
68525;BME280;55524;51.380;13.372;2023-10-09T02:38:35;100849.34;;;10.32;100.00
68525;BME280;55524;51.380;13.372;2023-10-09T02:41:08;100829.16;;;10.31;100.00
68525;BME280;55524;51.380;13.372;2023-10-09T02:43:37;100832.72;;;10.29;100.00
68525;BME280;55524;51.380;13.372;2023-10-09T02:46:14;100838.00;;;10.29;100.00
68525;BME280;55524;51.380;13.372;2023-10-09T02:48:50;100844.19;;;10.29;100.00
68525;BME280;55524;51.380;13.372;2023-10-09T02:51:20;100831.84;;;10.30;100.00
68525;BME280;55524;51.380;13.372;2023-10-09T02:53:57;100814.06;;;10.35;100.00
68525;BME280;55524;51.380;13.372;2023-10-09T02:56:27;100802.66;;;10.34;100.00
68525;BME280;55524;51.380;13.372;2023-10-09T02:59:04;100789.59;;;10.28;100.00
68525;BME280;55524;51.380;13.372;2023-10-09T03:01:38;100782.53;;;10.29;100.00
68525;BME280;55524;51.380;13.372;2023-10-09T03:04:05;100775.31;;;10.36;100.00
68525;BME280;55524;51.380;13.372;2023-10-09T03:06:33;100771.88;;;10.32;100.00
68525;BME280;55524;51.380;13.372;2023-10-09T03:09:04;100763.09;;;10.31;100.00
68525;BME280;55524;51.380;13.372;2023-10-09T03:11:45;100766.44;;;10.38;100.00
68525;BME280;55524;51.380;13.372;2023-10-09T03:14:13;100753.31;;;10.35;100.00
68525;BME280;55524;51.380;13.372;2023-10-09T03:16:39;100763.72;;;10.40;100.00
68525;BME280;55524;51.380;13.372;2023-10-09T03:19:05;100772.59;;;10.37;100.00
68525;BME280;55524;51.380;13.372;2023-10-09T03:21:31;100777.88;;;10.37;100.00
68525;BME280;55524;51.380;13.372;2023-10-09T03:23:58;100774.28;;;10.40;100.00
68525;BME280;55524;51.380;13.372;2023-10-09T03:26:24;100793.56;;;10.43;100.00
68525;BME280;55524;51.380;13.372;2023-10-09T03:28:52;100810.19;;;10.47;100.00
68525;BME280;55524;51.380;13.372;2023-10-09T03:31:18;100791.78;;;10.44;100.00
68525;BME280;55524;51.380;13.372;2023-10-09T03:33:45;100789.34;;;10.38;100.00
68525;BME280;55524;51.380;13.372;2023-10-09T03:36:11;100786.72;;;10.36;100.00
68525;BME280;55524;51.380;13.372;2023-10-09T03:38:38;100785.81;;;10.37;100.00
68525;BME280;55524;51.380;13.372;2023-10-09T03:41:07;100784.06;;;10.38;100.00
68525;BME280;55524;51.380;13.372;2023-10-09T03:43:38;100778.81;;;10.36;100.00
68525;BME280;55524;51.380;13.372;2023-10-09T03:46:08;100783.16;;;10.37;100.00
68525;BME280;55524;51.380;13.372;2023-10-09T03:48:47;100772.91;;;10.28;100.00
68525;BME280;55524;51.380;13.372;2023-10-09T03:51:14;100754.50;;;10.25;100.00
68525;BME280;55524;51.380;13.372;2023-10-09T03:53:50;100761.41;;;10.29;100.00
68525;BME280;55524;51.380;13.372;2023-10-09T03:56:17;100779.81;;;10.32;100.00
68525;BME280;55524;51.380;13.372;2023-10-09T03:58:45;100792.84;;;10.38;100.00
68525;BME280;55524;51.380;13.372;2023-10-09T04:01:13;100792.00;;;10.38;100.00
68525;BME280;55524;51.380;13.372;2023-10-09T04:04:05;100792.88;;;10.37;100.00
68525;BME280;55524;51.380;13.372;2023-10-09T04:06:33;100802.66;;;10.34;100.00
68525;BME280;55524;51.380;13.372;2023-10-09T04:09:01;100789.44;;;10.34;100.00
68525;BME280;55524;51.380;13.372;2023-10-09T04:11:51;100778.91;;;10.33;100.00
68525;BME280;55524;51.380;13.372;2023-10-09T04:14:43;100783.13;;;10.39;100.00
68525;BME280;55524;51.380;13.372;2023-10-09T04:17:26;100747.25;;;10.31;100.00
68525;BME280;55524;51.380;13.372;2023-10-09T04:19:55;100728.00;;;10.28;100.00
68525;BME280;55524;51.380;13.372;2023-10-09T04:23:00;100712.34;;;10.20;100.00
68525;BME280;55524;51.380;13.372;2023-10-09T04:25:32;100725.44;;;10.25;100.00
68525;BME280;55524;51.380;13.372;2023-10-09T04:28:08;100717.72;;;10.17;100.00
68525;BME280;55524;51.380;13.372;2023-10-09T04:30:37;100722.13;;;10.18;100.00
68525;BME280;55524;51.380;13.372;2023-10-09T04:33:06;100713.50;;;10.12;100.00
68525;BME280;55524;51.380;13.372;2023-10-09T04:35:51;100687.88;;;10.15;100.00
68525;BME280;55524;51.380;13.372;2023-10-09T04:38:37;100688.72;;;10.16;100.00
68525;BME280;55524;51.380;13.372;2023-10-09T04:41:07;100687.81;;;10.17;100.00
68525;BME280;55524;51.380;13.372;2023-10-09T04:43:35;100684.31;;;10.16;100.00
68525;BME280;55524;51.380;13.372;2023-10-09T04:46:01;100674.75;;;10.12;100.00
68525;BME280;55524;51.380;13.372;2023-10-09T04:48:38;100658.97;;;10.10;100.00
68525;BME280;55524;51.380;13.372;2023-10-09T04:51:07;100646.94;;;10.02;100.00
68525;BME280;55524;51.380;13.372;2023-10-09T04:53:57;100638.88;;;10.06;100.00
68525;BME280;55524;51.380;13.372;2023-10-09T04:56:58;100633.44;;;10.11;100.00
68525;BME280;55524;51.380;13.372;2023-10-09T04:59:25;100630.72;;;10.13;100.00
68525;BME280;55524;51.380;13.372;2023-10-09T05:01:52;100618.44;;;10.12;100.00
68525;BME280;55524;51.380;13.372;2023-10-09T05:04:25;100622.03;;;10.09;100.00
68525;BME280;55524;51.380;13.372;2023-10-09T05:07:06;100618.53;;;10.08;100.00
68525;BME280;55524;51.380;13.372;2023-10-09T05:09:51;100621.00;;;10.15;100.00
68525;BME280;55524;51.380;13.372;2023-10-09T05:12:40;100618.28;;;10.16;100.00
68525;BME280;55524;51.380;13.372;2023-10-09T05:15:13;100627.13;;;10.15;100.00
68525;BME280;55524;51.380;13.372;2023-10-09T05:17:40;100626.19;;;10.18;100.00
68525;BME280;55524;51.380;13.372;2023-10-09T05:20:18;100619.13;;;10.18;100.00
68525;BME280;55524;51.380;13.372;2023-10-09T05:22:53;100613.72;;;10.21;100.00
68525;BME280;55524;51.380;13.372;2023-10-09T05:25:39;100622.44;;;10.25;100.00
68525;BME280;55524;51.380;13.372;2023-10-09T05:28:22;100633.75;;;10.28;100.00
68525;BME280;55524;51.380;13.372;2023-10-09T05:30:52;100637.13;;;10.33;100.00
68525;BME280;55524;51.380;13.372;2023-10-09T05:33:36;100638.88;;;10.33;100.00
68525;BME280;55524;51.380;13.372;2023-10-09T05:36:05;100637.16;;;10.32;100.00
68525;BME280;55524;51.380;13.372;2023-10-09T05:38:51;100641.50;;;10.34;100.00
68525;BME280;55524;51.380;13.372;2023-10-09T05:41:36;100639.63;;;10.38;100.00
68525;BME280;55524;51.380;13.372;2023-10-09T05:44:13;100635.44;;;10.31;100.00
68525;BME280;55524;51.380;13.372;2023-10-09T05:46:55;100638.63;;;10.41;100.00
68525;BME280;55524;51.380;13.372;2023-10-09T05:49:40;100628.88;;;10.43;100.00
68525;BME280;55524;51.380;13.372;2023-10-09T05:52:13;100628.03;;;10.42;100.00
68525;BME280;55524;51.380;13.372;2023-10-09T05:54:58;100623.38;;;10.49;100.00
68525;BME280;55524;51.380;13.372;2023-10-09T05:57:42;100625.16;;;10.48;100.00
68525;BME280;55524;51.380;13.372;2023-10-09T06:00:27;100633.66;;;10.58;100.00
68525;BME280;55524;51.380;13.372;2023-10-09T06:03:12;100625.59;;;10.61;100.00
68525;BME280;55524;51.380;13.372;2023-10-09T06:05:45;100611.44;;;10.64;100.00
68525;BME280;55524;51.380;13.372;2023-10-09T06:08:32;100613.03;;;10.68;100.00
68525;BME280;55524;51.380;13.372;2023-10-09T06:11:10;100617.47;;;10.67;100.00
68525;BME280;55524;51.380;13.372;2023-10-09T06:13:57;100618.41;;;10.66;100.00
68525;BME280;55524;51.380;13.372;2023-10-09T06:16:31;100625.25;;;10.72;100.00
68525;BME280;55524;51.380;13.372;2023-10-09T06:19:13;100636.50;;;10.77;100.00
68525;BME280;55524;51.380;13.372;2023-10-09T06:21:42;100644.34;;;10.80;100.00
68525;BME280;55524;51.380;13.372;2023-10-09T06:24:09;100624.00;;;10.82;100.00
68525;BME280;55524;51.380;13.372;2023-10-09T06:26:41;100615.97;;;10.85;100.00
68525;BME280;55524;51.380;13.372;2023-10-09T06:29:18;100629.88;;;10.90;100.00
68525;BME280;55524;51.380;13.372;2023-10-09T06:32:04;100643.03;;;10.92;100.00
68525;BME280;55524;51.380;13.372;2023-10-09T06:34:48;100635.97;;;10.92;100.00
68525;BME280;55524;51.380;13.372;2023-10-09T06:37:50;100631.53;;;10.93;100.00
68525;BME280;55524;51.380;13.372;2023-10-09T06:40:36;100626.03;;;10.99;100.00
68525;BME280;55524;51.380;13.372;2023-10-09T06:43:03;100647.03;;;11.03;100.00
68525;BME280;55524;51.380;13.372;2023-10-09T06:45:38;100645.91;;;11.11;100.00
68525;BME280;55524;51.380;13.372;2023-10-09T06:48:11;100652.72;;;11.16;100.00
68525;BME280;55524;51.380;13.372;2023-10-09T06:51:08;100658.94;;;11.15;100.00
68525;BME280;55524;51.380;13.372;2023-10-09T06:53:56;100662.25;;;11.22;100.00
68525;BME280;55524;51.380;13.372;2023-10-09T06:59:00;100682.13;;;11.32;100.00
68525;BME280;55524;51.380;13.372;2023-10-09T07:01:45;100680.22;;;11.37;100.00
68525;BME280;55524;51.380;13.372;2023-10-09T07:04:34;100685.53;;;11.36;100.00
68525;BME280;55524;51.380;13.372;2023-10-09T07:07:01;100683.03;;;11.32;100.00
68525;BME280;55524;51.380;13.372;2023-10-09T07:09:28;100681.09;;;11.36;100.00
68525;BME280;55524;51.380;13.372;2023-10-09T07:12:29;100686.34;;;11.38;100.00
68525;BME280;55524;51.380;13.372;2023-10-09T07:15:02;100690.91;;;11.34;100.00
68525;BME280;55524;51.380;13.372;2023-10-09T07:17:31;100680.50;;;11.29;100.00
68525;BME280;55524;51.380;13.372;2023-10-09T07:20:00;100681.34;;;11.30;100.00
68525;BME280;55524;51.380;13.372;2023-10-09T07:23:02;100685.81;;;11.28;100.00
68525;BME280;55524;51.380;13.372;2023-10-09T07:25:41;100693.88;;;11.25;100.00
68525;BME280;55524;51.380;13.372;2023-10-09T07:28:21;100690.22;;;11.29;100.00
68525;BME280;55524;51.380;13.372;2023-10-09T07:31:03;100696.47;;;11.26;100.00
68525;BME280;55524;51.380;13.372;2023-10-09T07:33:30;100699.00;;;11.29;100.00
68525;BME280;55524;51.380;13.372;2023-10-09T07:36:15;100700.78;;;11.29;100.00
68525;BME280;55524;51.380;13.372;2023-10-09T07:38:41;100706.94;;;11.29;100.00
68525;BME280;55524;51.380;13.372;2023-10-09T07:41:10;100707.81;;;11.30;100.00
68525;BME280;55524;51.380;13.372;2023-10-09T07:43:38;100711.47;;;11.26;100.00
68525;BME280;55524;51.380;13.372;2023-10-09T07:46:15;100704.34;;;11.28;100.00
68525;BME280;55524;51.380;13.372;2023-10-09T07:49:05;100700.50;;;11.37;100.00
68525;BME280;55524;51.380;13.372;2023-10-09T07:51:36;100697.16;;;11.31;100.00
68525;BME280;55524;51.380;13.372;2023-10-09T07:54:03;100699.59;;;11.38;100.00
68525;BME280;55524;51.380;13.372;2023-10-09T07:56:40;100711.78;;;11.42;100.00
68525;BME280;55524;51.380;13.372;2023-10-09T07:59:14;100716.13;;;11.44;100.00
68525;BME280;55524;51.380;13.372;2023-10-09T08:01:45;100723.34;;;11.39;100.00
68525;BME280;55524;51.380;13.372;2023-10-09T08:04:25;100723.69;;;11.30;100.00
68525;BME280;55524;51.380;13.372;2023-10-09T08:07:08;100735.31;;;11.24;100.00
68525;BME280;55524;51.380;13.372;2023-10-09T08:09:36;100732.66;;;11.26;100.00
68525;BME280;55524;51.380;13.372;2023-10-09T08:12:15;100719.41;;;11.26;100.00
68525;BME280;55524;51.380;13.372;2023-10-09T08:15:00;100715.06;;;11.25;100.00
68525;BME280;55524;51.380;13.372;2023-10-09T08:17:51;100718.50;;;11.27;100.00
68525;BME280;55524;51.380;13.372;2023-10-09T08:20:26;100730.00;;;11.26;100.00
68525;BME280;55524;51.380;13.372;2023-10-09T08:22:53;100732.69;;;11.24;100.00
68525;BME280;55524;51.380;13.372;2023-10-09T08:25:23;100731.22;;;11.16;100.00
68525;BME280;55524;51.380;13.372;2023-10-09T08:27:56;100742.81;;;11.13;100.00
68525;BME280;55524;51.380;13.372;2023-10-09T08:30:24;100742.84;;;11.12;100.00
68525;BME280;55524;51.380;13.372;2023-10-09T08:32:52;100740.19;;;11.12;100.00
68525;BME280;55524;51.380;13.372;2023-10-09T08:35:35;100725.19;;;11.12;100.00
68525;BME280;55524;51.380;13.372;2023-10-09T08:38:14;100713.03;;;11.06;100.00
68525;BME280;55524;51.380;13.372;2023-10-09T08:40:41;100708.44;;;11.12;100.00
68525;BME280;55524;51.380;13.372;2023-10-09T08:43:14;100706.72;;;11.11;100.00
68525;BME280;55524;51.380;13.372;2023-10-09T08:45:54;100716.34;;;11.13;100.00
68525;BME280;55524;51.380;13.372;2023-10-09T08:48:27;100717.91;;;11.19;100.00
68525;BME280;55524;51.380;13.372;2023-10-09T08:50:56;100720.53;;;11.19;100.00
68525;BME280;55524;51.380;13.372;2023-10-09T08:53:25;100719.59;;;11.21;100.00
68525;BME280;55524;51.380;13.372;2023-10-09T08:55:54;100736.31;;;11.22;100.00
68525;BME280;55524;51.380;13.372;2023-10-09T08:58:21;100731.78;;;11.25;100.00
68525;BME280;55524;51.380;13.372;2023-10-09T09:00:52;100742.31;;;11.27;100.00
68525;BME280;55524;51.380;13.372;2023-10-09T09:03:22;100743.16;;;11.27;100.00
68525;BME280;55524;51.380;13.372;2023-10-09T09:05:59;100722.84;;;11.28;100.00
68525;BME280;55524;51.380;13.372;2023-10-09T09:08:31;100721.97;;;11.29;100.00
68525;BME280;55524;51.380;13.372;2023-10-09T09:10:59;100713.78;;;11.35;100.00
68525;BME280;55524;51.380;13.372;2023-10-09T09:16:04;100709.31;;;11.37;100.00
68525;BME280;55524;51.380;13.372;2023-10-09T09:18:31;100711.50;;;11.49;100.00
68525;BME280;55524;51.380;13.372;2023-10-09T09:21:18;100716.56;;;11.55;100.00
68525;BME280;55524;51.380;13.372;2023-10-09T09:23:59;100706.78;;;11.57;100.00
68525;BME280;55524;51.380;13.372;2023-10-09T09:26:34;100701.78;;;11.50;100.00
68525;BME280;55524;51.380;13.372;2023-10-09T09:29:06;100711.97;;;11.61;100.00
68525;BME280;55524;51.380;13.372;2023-10-09T09:31:34;100717.88;;;11.67;100.00
68525;BME280;55524;51.380;13.372;2023-10-09T09:34:06;100712.47;;;11.70;100.00
68525;BME280;55524;51.380;13.372;2023-10-09T09:36:55;100713.16;;;11.75;100.00
68525;BME280;55524;51.380;13.372;2023-10-09T09:39:31;100719.22;;;11.79;100.00
68525;BME280;55524;51.380;13.372;2023-10-09T09:42:00;100713.78;;;11.84;100.00
68525;BME280;55524;51.380;13.372;2023-10-09T09:44:56;100721.00;;;11.78;100.00
68525;BME280;55524;51.380;13.372;2023-10-09T09:47:23;100728.94;;;11.78;100.00
68525;BME280;55524;51.380;13.372;2023-10-09T09:49:52;100722.69;;;11.81;100.00
68525;BME280;55524;51.380;13.372;2023-10-09T09:52:19;100728.78;;;11.83;100.00
68525;BME280;55524;51.380;13.372;2023-10-09T09:54:47;100722.69;;;11.81;100.00
68525;BME280;55524;51.380;13.372;2023-10-09T09:57:20;100728.84;;;11.81;100.00
68525;BME280;55524;51.380;13.372;2023-10-09T09:59:52;100713.63;;;11.88;100.00
68525;BME280;55524;51.380;13.372;2023-10-09T10:02:30;100723.00;;;11.97;100.00
68525;BME280;55524;51.380;13.372;2023-10-09T10:09:26;100719.00;;;12.09;100.00
68525;BME280;55524;51.380;13.372;2023-10-09T10:12:03;100705.44;;;12.16;100.00
68525;BME280;55524;51.380;13.372;2023-10-09T10:14:56;100706.97;;;12.22;100.00
68525;BME280;55524;51.380;13.372;2023-10-09T10:17:25;100704.97;;;12.28;100.00
68525;BME280;55524;51.380;13.372;2023-10-09T10:20:00;100711.91;;;12.31;100.00
68525;BME280;55524;51.380;13.372;2023-10-09T10:22:28;100725.13;;;12.33;100.00
68525;BME280;55524;51.380;13.372;2023-10-09T10:24:56;100720.47;;;12.38;100.00
68525;BME280;55524;51.380;13.372;2023-10-09T10:27:35;100703.72;;;12.37;100.00
68525;BME280;55524;51.380;13.372;2023-10-09T10:30:27;100702.56;;;12.44;100.00
68525;BME280;55524;51.380;13.372;2023-10-09T10:33:01;100701.22;;;12.54;100.00
68525;BME280;55524;51.380;13.372;2023-10-09T10:35:45;100682.34;;;12.62;100.00
68525;BME280;55524;51.380;13.372;2023-10-09T10:38:26;100690.00;;;12.70;100.00
68525;BME280;55524;51.380;13.372;2023-10-09T10:41:09;100685.31;;;12.76;100.00
68525;BME280;55524;51.380;13.372;2023-10-09T10:43:40;100679.91;;;12.78;100.00
68525;BME280;55524;51.380;13.372;2023-10-09T10:46:19;100687.50;;;12.87;100.00
68525;BME280;55524;51.380;13.372;2023-10-09T10:49:07;100697.06;;;12.91;100.00
68525;BME280;55524;51.380;13.372;2023-10-09T10:51:48;100685.81;;;13.05;100.00
68525;BME280;55524;51.380;13.372;2023-10-09T10:54:23;100680.66;;;13.02;100.00
68525;BME280;55524;51.380;13.372;2023-10-09T10:57:19;100682.25;;;13.06;100.00
68525;BME280;55524;51.380;13.372;2023-10-09T11:00:17;100678.69;;;13.07;100.00
68525;BME280;55524;51.380;13.372;2023-10-09T11:03:02;100679.53;;;13.08;100.00
68525;BME280;55524;51.380;13.372;2023-10-09T11:05:44;100678.53;;;13.10;100.00
68525;BME280;55524;51.380;13.372;2023-10-09T11:08:25;100681.69;;;13.18;100.00
68525;BME280;55524;51.380;13.372;2023-10-09T11:11:14;100690.38;;;13.23;100.00
68525;BME280;55524;51.380;13.372;2023-10-09T11:13:45;100691.75;;;13.32;100.00
68525;BME280;55524;51.380;13.372;2023-10-09T11:16:25;100688.97;;;13.35;100.00
68525;BME280;55524;51.380;13.372;2023-10-09T11:19:00;100693.13;;;13.41;100.00
68525;BME280;55524;51.380;13.372;2023-10-09T11:21:38;100689.47;;;13.43;100.00
68525;BME280;55524;51.380;13.372;2023-10-09T11:24:09;100676.25;;;13.42;100.00
68525;BME280;55524;51.380;13.372;2023-10-09T11:26:50;100672.59;;;13.44;100.00
68525;BME280;55524;51.380;13.372;2023-10-09T11:29:24;100679.63;;;13.45;100.00
68525;BME280;55524;51.380;13.372;2023-10-09T11:32:14;100675.34;;;13.43;100.00
68525;BME280;55524;51.380;13.372;2023-10-09T11:34:48;100664.44;;;13.49;100.00
68525;BME280;55524;51.380;13.372;2023-10-09T11:37:20;100661.56;;;13.53;100.00
68525;BME280;55524;51.380;13.372;2023-10-09T11:40:32;100669.69;;;13.50;100.00
68525;BME280;55524;51.380;13.372;2023-10-09T11:43:46;100674.91;;;13.52;100.00
68525;BME280;55524;51.380;13.372;2023-10-09T11:46:22;100674.91;;;13.52;100.00
68525;BME280;55524;51.380;13.372;2023-10-09T11:49:14;100662.97;;;13.42;100.00
68525;BME280;55524;51.380;13.372;2023-10-09T11:51:47;100657.16;;;13.34;100.00
68525;BME280;55524;51.380;13.372;2023-10-09T11:54:33;100659.25;;;13.46;100.00
68525;BME280;55524;51.380;13.372;2023-10-09T11:57:00;100662.00;;;13.44;100.00
68525;BME280;55524;51.380;13.372;2023-10-09T11:59:28;100665.88;;;13.56;100.00
68525;BME280;55524;51.380;13.372;2023-10-09T12:02:00;100662.13;;;13.41;100.00
68525;BME280;55524;51.380;13.372;2023-10-09T12:04:27;100665.44;;;13.46;100.00
68525;BME280;55524;51.380;13.372;2023-10-09T12:06:56;100668.84;;;13.29;100.00
68525;BME280;55524;51.380;13.372;2023-10-09T12:09:37;100670.94;;;13.23;100.00
68525;BME280;55524;51.380;13.372;2023-10-09T12:12:04;100673.59;;;13.23;100.00
68525;BME280;55524;51.380;13.372;2023-10-09T12:14:31;100671.97;;;12.98;100.00
68525;BME280;55524;51.380;13.372;2023-10-09T12:17:01;100662.25;;;12.99;100.00
68525;BME280;55524;51.380;13.372;2023-10-09T12:19:38;100668.19;;;13.04;100.00
68525;BME280;55524;51.380;13.372;2023-10-09T12:22:08;100667.66;;;12.96;100.00
68525;BME280;55524;51.380;13.372;2023-10-09T12:24:42;100672.91;;;12.97;100.00
68525;BME280;55524;51.380;13.372;2023-10-09T12:27:09;100674.91;;;12.92;100.00
68525;BME280;55524;51.380;13.372;2023-10-09T12:29:37;100673.91;;;12.95;100.00
68525;BME280;55524;51.380;13.372;2023-10-09T12:32:04;100673.03;;;12.94;100.00
68525;BME280;55524;51.380;13.372;2023-10-09T12:34:36;100669.59;;;12.92;100.00
68525;BME280;55524;51.380;13.372;2023-10-09T12:37:04;100670.25;;;12.97;100.00
68525;BME280;55524;51.380;13.372;2023-10-09T12:39:32;100669.13;;;13.03;100.00
68525;BME280;55524;51.380;13.372;2023-10-09T12:42:06;100672.03;;;12.97;100.00
68525;BME280;55524;51.380;13.372;2023-10-09T12:44:36;100667.59;;;12.97;100.00
68525;BME280;55524;51.380;13.372;2023-10-09T12:47:08;100662.56;;;12.91;100.00
68525;BME280;55524;51.380;13.372;2023-10-09T12:49:37;100663.81;;;12.83;100.00
68525;BME280;55524;51.380;13.372;2023-10-09T12:52:10;100668.41;;;12.79;100.00
68525;BME280;55524;51.380;13.372;2023-10-09T12:54:45;100664.16;;;12.75;100.00
68525;BME280;55524;51.380;13.372;2023-10-09T12:57:14;100667.84;;;12.71;100.00
68525;BME280;55524;51.380;13.372;2023-10-09T12:59:41;100661.03;;;12.65;100.00
68525;BME280;55524;51.380;13.372;2023-10-09T13:02:13;100666.31;;;12.65;100.00
68525;BME280;55524;51.380;13.372;2023-10-09T13:04:39;100670.16;;;12.58;100.00
68525;BME280;55524;51.380;13.372;2023-10-09T13:07:08;100663.06;;;12.59;100.00
68525;BME280;55524;51.380;13.372;2023-10-09T13:09:34;100656.16;;;12.54;100.00
68525;BME280;55524;51.380;13.372;2023-10-09T13:12:01;100655.25;;;12.55;100.00
68525;BME280;55524;51.380;13.372;2023-10-09T13:14:28;100653.50;;;12.54;100.00
68525;BME280;55524;51.380;13.372;2023-10-09T13:16:54;100655.09;;;12.59;100.00
68525;BME280;55524;51.380;13.372;2023-10-09T13:19:22;100654.97;;;12.62;100.00
68525;BME280;55524;51.380;13.372;2023-10-09T13:21:50;100653.25;;;12.61;100.00
68525;BME280;55524;51.380;13.372;2023-10-09T13:24:16;100653.16;;;12.64;100.00
68525;BME280;55524;51.380;13.372;2023-10-09T13:26:43;100656.56;;;12.66;100.00